logo
Search for airport 
image banner adimage banner adimage banner ad
image banner ad

ESCF - Linkoping/Malmen

Located in Linkoping, Sweden

ICAO - ESCF, IATA -

Data provided by Airmate  

General information

Coordinates: N58°23'46" E15°31'19"
Elevation is 309 feet MSL.
Magnetic variation is +6.0° East
View others Airports in Östergötlands län

Operational data

Special qualification required
Current time UTC:
Current local time:
Weather
METAR: ESCF 140220Z AUTO 22011KT 9999 FEW009/// OVC013/// 09/09 Q0999
View NOTAMs / SUP AIP / TFR affecting this airport [VIEW]
Communications frequencies: [VIEW]

Runways:

RWY identifierQFULength (ft)Width (ft)SurfaceLDA (ft)
0118°7264115ASPH7264
19198°7264115ASPH7264
0883°6135121ASPH6135
26263°6135121ASPH6135

Airport contact information

Address: Linkoping Sweden

Satellite view of ESCF